Time;durP1;ratioP1;P1;durP2;ratioP2;P2;SDS_P1;SDS_P2;PMS_P1;PMS_P2;Temp;Humidity;BMP_temperature;BMP_pressure;BME280_temperature;BME280_humidity;BME280_pressure;Samples;Min_cycle;Max_cycle;Signal;HPM_P1;HPM_P2
2021/03/04 00:00:35;;;;;;;20.17;11.15;;;;;;;13.60;68.20;101886.06;5058659;28;20067;-64
2021/03/04 00:03:04;;;;;;;24.02;12.27;;;;;;;13.49;69.12;101890.16;5083149;28;20048;-65
2021/03/04 00:05:31;;;;;;;24.80;12.25;;;;;;;13.54;68.87;101878.97;5075360;28;20051;-65
2021/03/04 00:07:58;;;;;;;22.25;12.18;;;;;;;13.57;69.46;101886.66;5088253;28;20056;-63
2021/03/04 00:10:30;;;;;;;21.60;12.02;;;;;;;13.60;69.65;101886.06;5093062;28;20044;-65
2021/03/04 00:13:03;;;;;;;20.52;11.48;;;;;;;13.40;70.62;101884.50;5092803;28;20063;-65
2021/03/04 00:15:32;;;;;;;24.95;11.88;;;;;;;13.14;71.68;101883.28;5074921;28;20363;-65
2021/03/04 00:18:00;;;;;;;21.23;12.23;;;;;;;13.45;70.91;101875.28;5093275;28;20067;-65
2021/03/04 00:20:30;;;;;;;21.35;11.60;;;;;;;13.29;70.94;101879.44;5093095;28;20048;-64
2021/03/04 00:22:57;;;;;;;26.40;13.23;;;;;;;13.51;70.67;101869.31;5092509;28;20399;-64
2021/03/04 00:25:26;;;;;;;27.50;12.68;;;;;;;13.25;72.01;101872.88;5092992;28;20111;-64
2021/03/04 00:27:53;;;;;;;27.60;12.63;;;;;;;13.37;71.50;101879.53;5092252;28;20394;-65
2021/03/04 00:30:24;;;;;;;26.65;12.73;;;;;;;13.54;71.16;101865.97;5075042;28;20507;-64
2021/03/04 00:32:51;;;;;;;23.67;12.65;;;;;;;13.34;71.90;101871.03;5054350;28;20052;-65
2021/03/04 00:35:19;;;;;;;27.42;12.32;;;;;;;13.62;70.92;101869.13;5071322;28;20049;-64
2021/03/04 00:37:55;;;;;;;34.50;14.23;;;;;;;13.53;71.14;101872.63;5063578;28;20059;-65
2021/03/04 00:40:25;;;;;;;36.72;20.13;;;;;;;13.45;71.50;101866.97;5092181;28;20048;-65
2021/03/04 00:42:55;;;;;;;48.72;26.13;;;;;;;13.28;72.07;101866.72;5075020;28;20059;-63
2021/03/04 00:45:29;;;;;;;47.78;29.60;;;;;;;13.25;72.39;101859.84;5058627;28;20048;-65
2021/03/04 00:48:09;;;;;;;27.70;14.07;;;;;;;13.07;72.51;101865.44;5075075;28;20483;-64
2021/03/04 00:50:57;;;;;;;24.45;15.02;;;;;;;13.04;73.17;101869.59;5076622;28;20509;-64
2021/03/04 00:53:29;;;;;;;35.33;19.35;;;;;;;13.20;72.56;101859.09;5057982;28;20066;-64
2021/03/04 00:56:02;;;;;;;27.48;12.98;;;;;;;13.10;72.95;101857.34;5074887;28;20056;-66
2021/03/04 00:58:32;;;;;;;29.65;13.20;;;;;;;13.09;72.85;101864.00;5074354;28;20052;-65
2021/03/04 01:00:59;;;;;;;23.05;12.40;;;;;;;13.25;72.15;101862.59;5056579;28;20055;-65
2021/03/04 01:03:30;;;;;;;22.00;11.98;;;;;;;13.33;71.51;101870.22;5092679;28;20494;-64
2021/03/04 01:06:23;;;;;;;22.67;12.20;;;;;;;13.42;71.56;101864.81;5055599;28;20499;-64
2021/03/04 01:08:51;;;;;;;21.58;12.60;;;;;;;13.31;71.63;101864.19;5073643;28;20052;-64
2021/03/04 01:11:21;;;;;;;27.38;12.77;;;;;;;13.06;71.71;101858.25;5091910;28;20044;-64
2021/03/04 01:13:50;;;;;;;23.88;13.00;;;;;;;13.02;72.27;101855.25;5092488;28;20051;-65
2021/03/04 01:16:17;;;;;;;27.33;12.93;;;;;;;12.83;72.92;101864.69;5073297;28;20056;-64
2021/03/04 01:18:44;;;;;;;25.55;12.45;;;;;;;12.87;72.63;101865.72;5091548;28;20044;-65
2021/03/04 01:21:17;;;;;;;24.95;13.30;;;;;;;12.52;73.72;101864.31;5087444;28;20059;-64
2021/03/04 01:23:58;;;;;;;23.77;13.27;;;;;;;12.27;74.85;101851.69;5090323;28;20063;-65
2021/03/04 01:26:29;;;;;;;25.23;13.13;;;;;;;12.49;75.03;101848.34;5091921;28;20040;-64
2021/03/04 01:28:59;;;;;;;26.15;12.65;;;;;;;12.42;74.75;101854.25;5075219;28;20525;-65
2021/03/04 01:31:26;;;;;;;24.40;12.55;;;;;;;12.50;74.75;101852.72;5074016;28;20055;-64
2021/03/04 01:33:54;;;;;;;26.55;13.00;;;;;;;12.50;74.33;101843.63;5091536;28;20058;-65
2021/03/04 01:36:21;;;;;;;29.48;13.35;;;;;;;12.29;75.28;101843.13;5091287;28;20051;-64
2021/03/04 01:39:14;;;;;;;28.08;13.32;;;;;;;12.34;75.48;101832.00;5053917;28;20040;-65
2021/03/04 01:41:41;;;;;;;23.17;12.93;;;;;;;12.26;75.42;101838.16;5069253;28;20079;-64
2021/03/04 01:44:08;;;;;;;25.38;13.02;;;;;;;12.33;74.98;101838.63;5053000;28;20056;-63
2021/03/04 01:46:35;;;;;;;30.52;13.63;;;;;;;12.36;74.95;101827.78;5052594;28;20479;-64
2021/03/04 01:49:02;;;;;;;27.80;14.00;;;;;;;12.09;75.64;101824.88;5071877;28;20403;-65
2021/03/04 01:51:32;;;;;;;;;;;;;;;12.16;75.60;101822.56;5066892;28;20048;-64
2021/03/04 01:53:59;;;;;;;28.02;12.95;;;;;;;12.04;76.36;101829.63;5053623;28;20286;-65
2021/03/04 01:56:27;;;;;;;24.02;13.55;;;;;;;12.08;76.30;101823.22;5071549;28;20040;-65
2021/03/04 01:59:00;;;;;;;24.38;13.88;;;;;;;12.19;76.06;101815.59;5053874;28;20055;-67
2021/03/04 02:01:27;;;;;;;28.00;13.40;;;;;;;11.99;76.58;101815.91;5053312;28;20052;-65
2021/03/04 02:03:56;;;;;;;21.92;12.68;;;;;;;12.26;75.82;101813.31;5061962;28;20215;-65
2021/03/04 02:06:29;;;;;;;22.33;12.60;;;;;;;12.17;75.59;101815.09;5070561;28;20055;-65
2021/03/04 02:08:59;;;;;;;24.48;13.18;;;;;;;12.30;74.82;101804.13;5071224;28;20044;-66
2021/03/04 02:11:39;;;;;;;26.10;13.40;;;;;;;12.14;75.01;101805.47;5036636;28;20124;-65
2021/03/04 02:14:13;;;;;;;23.75;12.77;;;;;;;12.01;75.28;101802.63;5052817;28;20060;-64
2021/03/04 02:17:00;;;;;;;26.70;12.77;;;;;;;12.12;74.64;101804.09;5056168;28;20062;-65
2021/03/04 02:19:27;;;;;;;21.88;12.80;;;;;;;12.34;74.12;101810.69;5071131;28;20056;-65
2021/03/04 02:22:09;;;;;;;24.00;12.65;;;;;;;12.24;74.06;101798.97;5060002;28;20059;-63
2021/03/04 02:24:47;;;;;;;23.58;12.85;;;;;;;11.95;74.74;101798.28;5037721;28;20057;-65
2021/03/04 02:27:16;;;;;;;25.40;12.43;;;;;;;11.97;74.77;101796.03;5052346;28;20395;-65
2021/03/04 02:29:48;;;;;;;23.70;12.35;;;;;;;12.09;74.52;101790.91;5068085;28;20395;-63
2021/03/04 02:32:21;;;;;;;22.58;12.75;;;;;;;12.21;73.40;101791.28;5053706;28;20055;-66
2021/03/04 02:34:51;;;;;;;24.52;12.10;;;;;;;12.12;73.37;101788.38;5053011;28;20056;-66
2021/03/04 02:37:20;;;;;;;31.65;12.68;;;;;;;12.31;72.97;101780.91;5078649;28;20055;-66
2021/03/04 02:39:48;;;;;;;22.83;12.43;;;;;;;12.12;73.86;101782.84;5073169;28;20051;-67
2021/03/04 02:42:21;;;;;;;25.65;12.77;;;;;;;11.83;74.98;101779.38;5090761;28;20387;-66
2021/03/04 02:44:54;;;;;;;28.95;13.23;;;;;;;12.06;74.96;101781.28;5058583;28;20368;-67
2021/03/04 02:47:21;;;;;;;21.30;12.75;;;;;;;12.02;74.56;101782.16;5073265;28;20048;-66
2021/03/04 02:49:49;;;;;;;26.80;13.25;;;;;;;12.03;74.28;101772.78;5057304;28;20040;-66
2021/03/04 02:52:25;;;;;;;20.55;12.10;;;;;;;12.10;74.09;101771.25;5076671;28;20052;-65
2021/03/04 02:55:02;;;;;;;23.02;13.00;;;;;;;12.24;73.59;101771.34;5092536;28;20059;-64
2021/03/04 02:57:30;;;;;;;23.88;13.32;;;;;;;12.07;73.78;101757.22;5091855;28;20063;-64
2021/03/04 02:59:58;;;;;;;26.75;12.90;;;;;;;12.08;74.13;101764.41;5074430;28;20399;-66
2021/03/04 03:02:27;;;;;;;25.60;12.88;;;;;;;12.22;73.51;101766.13;5075695;28;20044;-65
2021/03/04 03:04:56;;;;;;;24.27;12.70;;;;;;;12.24;73.47;101763.06;5075717;28;20052;-66
2021/03/04 03:07:23;;;;;;;28.10;12.82;;;;;;;12.09;74.10;101763.28;5069656;28;20048;-64
2021/03/04 03:09:50;;;;;;;29.77;13.80;;;;;;;12.15;74.10;101751.06;5094233;28;20063;-65
2021/03/04 03:12:19;;;;;;;26.70;13.10;;;;;;;12.32;73.45;101752.16;5042639;28;20056;-64
2021/03/04 03:14:49;;;;;;;24.90;12.63;;;;;;;12.37;73.04;101749.31;5077107;28;20415;-64
2021/03/04 03:17:16;;;;;;;29.92;13.07;;;;;;;12.32;73.08;101751.34;5091939;28;20059;-64
2021/03/04 03:20:05;;;;;;;24.25;12.13;;;;;;;12.22;72.81;101743.22;5078632;28;20051;-64
2021/03/04 03:22:32;;;;;;;25.33;12.25;;;;;;;12.11;73.71;101742.56;5074655;28;20059;-62
2021/03/04 03:24:59;;;;;;;27.30;12.55;;;;;;;11.94;73.88;101742.22;5092477;28;20055;-65
2021/03/04 03:27:27;;;;;;;23.27;12.98;;;;;;;11.93;74.18;101743.34;5093980;28;20051;-63
2021/03/04 03:29:54;;;;;;;26.13;13.27;;;;;;;12.00;73.17;101743.81;5093020;28;20071;-64
2021/03/04 03:32:22;;;;;;;23.58;12.35;;;;;;;11.94;73.96;101742.22;5093940;28;20052;-63
2021/03/04 03:34:50;;;;;;;27.58;12.68;;;;;;;11.95;73.70;101732.84;5092974;28;20060;-65
2021/03/04 03:37:17;;;;;;;25.05;13.15;;;;;;;11.87;73.76;101730.72;5059102;28;20048;-64
2021/03/04 03:39:45;;;;;;;27.75;13.40;;;;;;;11.84;74.50;101736.00;5093663;28;20055;-66
2021/03/04 03:42:12;;;;;;;25.55;13.65;;;;;;;11.87;74.18;101729.91;5075950;28;20062;-66
2021/03/04 03:44:57;;;;;;;23.52;12.63;;;;;;;11.85;74.29;101726.63;5061475;28;20048;-65
2021/03/04 03:47:25;;;;;;;28.55;13.68;;;;;;;11.72;75.03;101733.69;5075373;28;20040;-64
2021/03/04 03:49:53;;;;;;;24.05;13.52;;;;;;;11.77;74.83;101728.09;5076233;28;20044;-66
2021/03/04 03:52:20;;;;;;;30.15;13.35;;;;;;;11.82;74.76;101724.47;5076072;28;20048;-66
2021/03/04 03:54:53;;;;;;;25.58;14.35;;;;;;;12.25;74.25;101729.63;5093177;28;20062;-63
2021/03/04 03:57:20;;;;;;;26.92;13.93;;;;;;;11.98;73.93;101726.72;5056313;28;20052;-64
2021/03/04 03:59:50;;;;;;;23.42;13.90;;;;;;;11.72;75.08;101730.13;5090848;28;20043;-65
2021/03/04 04:02:17;;;;;;;24.52;13.73;;;;;;;11.81;74.88;101723.66;5074996;28;20063;-64
2021/03/04 04:04:44;;;;;;;24.58;13.27;;;;;;;11.60;74.87;101725.00;5076119;28;20044;-66
2021/03/04 04:07:12;;;;;;;27.65;13.85;;;;;;;11.66;75.48;101726.63;5091638;28;20052;-65
2021/03/04 04:09:40;;;;;;;25.38;13.68;;;;;;;11.75;75.09;101721.25;5074768;28;20155;-66
2021/03/04 04:12:07;;;;;;;29.90;13.48;;;;;;;11.81;74.86;101718.13;5059612;28;20474;-66
2021/03/04 04:14:34;;;;;;;28.45;14.18;;;;;;;12.01;73.93;101714.25;5089777;28;20063;-66
2021/03/04 04:17:02;;;;;;;28.05;13.63;;;;;;;11.79;74.79;101709.31;5093190;28;20490;-66
2021/03/04 04:19:29;;;;;;;24.23;13.05;;;;;;;12.02;73.71;101713.97;5092567;28;20052;-66
2021/03/04 04:21:56;;;;;;;23.98;13.95;;;;;;;12.00;73.73;101707.91;5058158;28;20044;-66
2021/03/04 04:24:24;;;;;;;21.60;13.25;;;;;;;12.15;73.22;101709.63;5069390;28;20056;-66
2021/03/04 04:26:50;;;;;;;23.20;13.45;;;;;;;12.02;73.32;101704.84;5093167;28;20052;-66
2021/03/04 04:29:23;;;;;;;23.17;13.70;;;;;;;12.02;73.36;101699.31;5092982;28;20052;-67
2021/03/04 04:31:50;;;;;;;21.25;13.25;;;;;;;11.90;73.60;101707.22;5089933;28;20044;-65
2021/03/04 04:34:19;;;;;;;21.75;13.18;;;;;;;11.90;73.72;101694.25;5075406;28;20044;-68
2021/03/04 04:36:46;;;;;;;23.45;13.90;;;;;;;12.01;73.28;101698.50;5089311;28;20051;-66
2021/03/04 04:39:13;;;;;;;26.52;13.95;;;;;;;12.03;73.15;101692.69;5072358;28;20060;-64
2021/03/04 04:41:40;;;;;;;26.23;14.07;;;;;;;12.02;73.01;101686.34;5072713;28;20068;-66
2021/03/04 04:44:08;;;;;;;24.45;13.88;;;;;;;11.73;73.76;101691.19;5054303;28;20053;-66
2021/03/04 04:46:37;;;;;;;27.42;13.85;;;;;;;11.95;73.49;101685.91;5072215;28;20053;-66
2021/03/04 04:49:04;;;;;;;25.02;13.68;;;;;;;11.92;73.05;101680.97;5053883;28;20052;-66
2021/03/04 04:51:32;;;;;;;30.48;14.40;;;;;;;12.15;72.60;101687.53;5071809;28;20044;-65
2021/03/04 04:53:59;;;;;;;25.25;13.75;;;;;;;12.11;72.35;101697.53;5071982;28;20040;-66
2021/03/04 04:56:27;;;;;;;28.52;13.63;;;;;;;11.94;73.06;101688.97;5070237;28;20427;-65
2021/03/04 04:59:10;;;;;;;21.58;13.13;;;;;;;12.07;72.87;101690.94;5071934;28;20048;-64
2021/03/04 05:01:37;;;;;;;21.58;13.30;;;;;;;12.21;72.39;101686.31;5071040;28;20079;-65
2021/03/04 05:04:05;;;;;;;23.30;13.40;;;;;;;12.10;72.24;101690.38;5053504;28;20399;-66
2021/03/04 05:06:32;;;;;;;36.38;14.73;;;;;;;12.01;72.48;101686.66;5054791;28;20048;-66
2021/03/04 05:09:02;;;;;;;25.60;14.38;;;;;;;12.13;72.28;101687.81;5069514;28;20360;-65
2021/03/04 05:11:29;;;;;;;30.23;13.65;;;;;;;12.25;71.64;101692.88;5071724;28;20056;-66
2021/03/04 05:13:55;;;;;;;31.83;14.52;;;;;;;12.12;71.53;101680.66;5053688;28;20056;-65
2021/03/04 05:16:22;;;;;;;22.35;14.50;;;;;;;12.02;71.84;101680.00;5071520;28;20045;-63
2021/03/04 05:18:49;;;;;;;26.30;13.50;;;;;;;12.03;71.88;101679.69;5071198;28;20400;-65
2021/03/04 05:21:32;;;;;;;29.13;14.48;;;;;;;11.99;71.87;101686.13;5070683;28;20045;-66
2021/03/04 05:23:59;;;;;;;25.55;13.95;;;;;;;12.19;71.43;101691.31;5071087;28;20048;-64
2021/03/04 05:26:26;;;;;;;20.77;13.68;;;;;;;12.18;71.32;101687.75;5071665;28;20067;-65
2021/03/04 05:28:53;;;;;;;24.10;13.50;;;;;;;12.52;70.33;101684.69;5071201;28;20041;-63
2021/03/04 05:31:23;;;;;;;23.45;13.55;;;;;;;12.51;69.68;101691.34;5066402;28;20052;-65
2021/03/04 05:33:56;;;;;;;26.90;15.00;;;;;;;12.14;71.07;101691.41;5088945;28;20055;-67
2021/03/04 05:36:23;;;;;;;28.60;15.57;;;;;;;12.11;71.30;101695.59;5089876;28;20059;-64
2021/03/04 05:38:53;;;;;;;25.45;14.40;;;;;;;12.13;71.38;101687.81;5079580;28;20502;-64
2021/03/04 05:41:26;;;;;;;29.50;15.15;;;;;;;12.24;70.84;101685.72;5089557;28;20044;-65
2021/03/04 05:43:53;;;;;;;25.05;14.82;;;;;;;12.15;71.23;101684.78;5073682;28;20048;-65
2021/03/04 05:46:22;;;;;;;33.90;14.65;;;;;;;11.96;72.06;101689.50;5057335;28;20044;-68
2021/03/04 05:48:50;;;;;;;;;;;;;;;12.39;72.21;101697.34;5092775;28;20044;-66
2021/03/04 05:51:25;;;;;;;29.23;15.95;;;;;;;12.39;70.86;101693.75;5091768;28;20364;-66
2021/03/04 05:53:57;;;;;;;29.00;14.68;;;;;;;12.11;71.32;101690.06;5091839;28;20048;-65
2021/03/04 05:56:28;;;;;;;25.63;16.15;;;;;;;12.09;70.83;101689.56;5088058;28;20048;-66
2021/03/04 05:58:59;;;;;;;31.35;15.85;;;;;;;11.85;71.27;101683.28;5072726;28;20073;-65
2021/03/04 06:01:26;;;;;;;29.73;15.93;;;;;;;11.79;71.78;101683.66;5091414;28;20048;-66
2021/03/04 06:03:53;;;;;;;31.92;15.98;;;;;;;11.60;72.66;101680.03;5091056;28;20048;-65
2021/03/04 06:06:20;;;;;;;27.23;15.52;;;;;;;11.59;72.69;101667.34;5073567;28;20059;-65
2021/03/04 06:08:47;;;;;;;26.90;15.65;;;;;;;11.73;72.16;101673.81;5073155;28;20048;-62
2021/03/04 06:11:17;;;;;;;29.65;15.77;;;;;;;11.28;73.12;101673.25;5091672;28;20052;-64
2021/03/04 06:13:50;;;;;;;29.27;15.70;;;;;;;11.34;73.39;101663.81;5073777;28;20044;-66
2021/03/04 06:16:18;;;;;;;29.63;15.23;;;;;;;11.46;73.09;101663.38;5091036;28;20075;-64
2021/03/04 06:18:49;;;;;;;34.63;17.08;;;;;;;11.43;73.37;101661.22;5072618;28;20075;-64
2021/03/04 06:21:23;;;;;;;28.10;15.35;;;;;;;11.67;72.95;101670.28;5072069;28;20063;-65
2021/03/04 06:23:59;;;;;;;28.63;15.65;;;;;;;11.69;72.25;101661.72;5091853;28;20059;-65
2021/03/04 06:26:28;;;;;;;25.67;15.13;;;;;;;11.81;72.04;101660.16;5059475;28;20044;-64
2021/03/04 06:29:28;;;;;;;31.05;16.20;;;;;;;11.86;71.55;101656.50;5077693;28;20048;-64
2021/03/04 06:32:06;;;;;;;27.63;15.07;;;;;;;11.81;71.76;101673.13;5095229;28;20044;-65
2021/03/04 06:34:33;;;;;;;28.58;14.77;;;;;;;11.94;71.02;101667.66;5076778;28;20051;-67
2021/03/04 06:37:00;;;;;;;20.38;13.40;;;;;;;11.91;70.57;101664.69;5076646;28;20048;-65
2021/03/04 06:39:45;;;;;;;25.45;14.45;;;;;;;12.12;71.43;101654.97;5094268;28;20044;-65
2021/03/04 06:42:14;;;;;;;23.98;13.80;;;;;;;11.80;70.85;101664.03;5076933;28;20047;-66
2021/03/04 06:44:49;;;;;;;27.23;14.30;;;;;;;11.91;70.78;101668.28;5094418;28;20044;-65
2021/03/04 06:47:24;;;;;;;31.85;14.30;;;;;;;11.61;71.33;101667.88;5097843;28;20040;-64
2021/03/04 06:49:52;;;;;;;29.02;13.82;;;;;;;11.27;72.74;101670.81;5073906;28;20044;-64
2021/03/04 06:52:38;;;;;;;29.80;14.60;;;;;;;11.01;74.33;101667.53;5060261;28;20052;-67
2021/03/04 06:55:25;;;;;;;28.35;15.00;;;;;;;11.03;74.38;101678.25;5079495;28;20070;-66
2021/03/04 06:58:22;;;;;;;26.70;15.10;;;;;;;11.13;74.52;101678.13;5094241;28;20063;-65
2021/03/04 07:01:03;;;;;;;34.80;16.17;;;;;;;11.04;75.69;101677.13;5010809;28;20045;-63
2021/03/04 07:03:49;;;;;;;28.05;14.60;;;;;;;11.51;74.14;101681.78;5011925;28;20045;-63
2021/03/04 07:06:34;;;;;;;30.77;14.93;;;;;;;11.83;74.70;101682.75;5006804;28;20050;-64
2021/03/04 07:09:01;;;;;;;31.98;16.30;;;;;;;12.19;71.57;101691.31;5011818;28;20485;-65
2021/03/04 07:11:29;;;;;;;28.98;15.68;;;;;;;11.54;71.93;101690.28;5011822;28;20093;-63
2021/03/04 07:13:57;;;;;;;31.58;16.85;;;;;;;11.33;73.87;101689.75;5010993;28;20050;-65
2021/03/04 07:16:27;;;;;;;44.50;17.23;;;;;;;11.07;74.42;101688.41;5011819;28;20538;-65
2021/03/04 07:18:55;;;;;;;38.90;16.60;;;;;;;10.80;75.96;101690.09;5012376;28;20097;-66
2021/03/04 07:21:24;;;;;;;32.67;16.20;;;;;;;10.92;76.46;101688.59;5012009;28;20057;-65
2021/03/04 07:24:02;;;;;;;35.22;16.00;;;;;;;10.99;77.55;101691.81;4994249;28;20166;-63
2021/03/04 07:26:30;;;;;;;35.08;17.15;;;;;;;11.08;79.34;101690.06;5011766;28;20054;-65
2021/03/04 07:29:07;;;;;;;31.95;15.25;;;;;;;11.20;79.32;101693.22;5011556;28;20058;-65
2021/03/04 07:31:34;;;;;;;32.45;16.40;;;;;;;10.96;76.51;101695.16;5010968;28;20582;-65
2021/03/04 07:34:02;;;;;;;39.45;16.90;;;;;;;11.45;80.16;101689.34;5025286;28;20054;-63
2021/03/04 07:36:29;;;;;;;38.45;17.08;;;;;;;11.25;75.58;101689.56;5010644;28;20065;-64
2021/03/04 07:38:58;;;;;;;39.03;16.15;;;;;;;11.24;74.89;101686.00;5048308;28;20507;-62
2021/03/04 07:41:45;;;;;;;40.72;16.95;;;;;;;11.14;75.23;101690.84;5090601;28;20044;-65
2021/03/04 07:44:31;;;;;;;31.20;15.60;;;;;;;11.07;76.35;101688.41;5092852;28;20059;-64
2021/03/04 07:47:08;;;;;;;32.30;15.82;;;;;;;11.53;78.58;101685.91;5075733;28;20047;-64
2021/03/04 07:49:36;;;;;;;31.75;15.27;;;;;;;11.60;75.67;101686.38;5075206;28;20490;-63
2021/03/04 07:52:10;;;;;;;39.25;17.55;;;;;;;11.31;76.92;101682.91;5089224;28;20066;-65
2021/03/04 07:54:42;;;;;;;42.22;15.93;;;;;;;11.92;78.26;101686.50;5091777;28;20052;-65
2021/03/04 07:57:11;;;;;;;28.67;14.90;;;;;;;12.58;75.82;101686.25;5091511;28;20055;-63
2021/03/04 07:59:59;;;;;;;28.38;13.43;;;;;;;12.53;69.41;101685.50;5088608;28;20052;-65
2021/03/04 08:02:31;;;;;;;32.75;14.10;;;;;;;12.26;69.95;101684.28;5087414;28;20040;-65
2021/03/04 08:05:30;;;;;;;36.65;15.65;;;;;;;12.27;70.19;101685.91;5073745;28;20074;-62
2021/03/04 08:08:09;;;;;;;34.37;15.30;;;;;;;11.92;71.07;101689.25;5086676;28;20047;-62
2021/03/04 08:10:43;;;;;;;36.70;16.45;;;;;;;11.73;71.64;101691.19;5085816;28;20049;-63
2021/03/04 08:13:10;;;;;;;37.35;15.70;;;;;;;11.78;71.66;101682.84;5088587;28;20056;-61
2021/03/04 08:15:44;;;;;;;37.03;15.13;;;;;;;11.79;71.80;101684.47;5087953;28;20491;-65
2021/03/04 08:18:19;;;;;;;31.88;15.55;;;;;;;12.00;71.10;101687.75;5056896;28;20052;-63
2021/03/04 08:20:48;;;;;;;33.45;16.38;;;;;;;11.71;71.00;101682.41;5069489;28;20052;-61
2021/03/04 08:23:17;;;;;;;31.08;15.20;;;;;;;11.36;72.33;101693.88;5063293;28;20071;-64
2021/03/04 08:25:44;;;;;;;31.52;15.05;;;;;;;11.55;72.73;101689.19;5015786;28;20048;-63
2021/03/04 08:28:23;;;;;;;32.72;15.55;;;;;;;11.15;73.62;101690.53;5082599;28;20052;-61
2021/03/04 08:30:50;;;;;;;36.67;16.23;;;;;;;11.12;74.36;101688.34;5057556;28;20052;-61
2021/03/04 08:33:17;;;;;;;33.70;15.15;;;;;;;11.25;73.55;101693.16;5050358;28;20045;-64
2021/03/04 08:35:49;;;;;;;39.30;16.45;;;;;;;11.10;74.26;101693.34;5081860;28;20044;-64
2021/03/04 08:38:25;;;;;;;36.88;15.82;;;;;;;10.96;75.26;101689.66;5062388;28;20119;-61
2021/03/04 08:40:58;;;;;;;33.58;16.70;;;;;;;10.99;74.90;101696.50;5061862;28;20407;-62
2021/03/04 08:43:27;;;;;;;40.00;16.00;;;;;;;10.93;75.87;101694.94;5070925;28;20044;-64
2021/03/04 08:45:59;;;;;;;30.42;15.93;;;;;;;11.08;75.38;101692.81;5075098;28;20514;-62
2021/03/04 08:48:27;;;;;;;36.95;16.65;;;;;;;11.48;74.35;101696.19;5063244;28;20048;-61
2021/03/04 08:51:00;;;;;;;35.78;16.23;;;;;;;11.52;73.92;101686.22;5036984;28;20053;-65
2021/03/04 08:53:28;;;;;;;36.40;15.55;;;;;;;11.72;73.53;101685.94;5035986;28;20387;-62
2021/03/04 08:55:56;;;;;;;32.90;15.55;;;;;;;11.98;72.73;101685.28;5055069;28;20048;-62
2021/03/04 08:58:25;;;;;;;34.05;16.17;;;;;;;11.95;72.25;101680.38;5053278;28;20526;-67
2021/03/04 09:00:54;;;;;;;34.72;16.33;;;;;;;11.91;72.01;101682.09;5069269;28;20051;-63
2021/03/04 09:03:24;;;;;;;35.78;14.30;;;;;;;11.86;71.56;101687.69;5054627;28;20348;-71
2021/03/04 09:06:08;;;;;;;37.13;14.93;;;;;;;11.57;73.15;101681.44;5057140;28;20039;-66
2021/03/04 09:08:39;;;;;;;29.35;14.70;;;;;;;12.17;71.72;101685.25;5075798;28;20051;-65
2021/03/04 09:11:10;;;;;;;31.88;13.77;;;;;;;11.73;71.27;101687.63;5061162;28;20055;-65
2021/03/04 09:13:37;;;;;;;29.15;14.60;;;;;;;11.44;73.59;101673.09;5055773;28;20358;-61
2021/03/04 09:16:07;;;;;;;35.92;14.57;;;;;;;11.37;73.57;101678.94;5075701;28;20059;-62
2021/03/04 09:18:45;;;;;;;38.33;14.18;;;;;;;11.22;73.63;101677.22;5069061;28;20048;-64
2021/03/04 09:21:14;;;;;;;35.90;15.93;;;;;;;11.30;73.80;101679.31;5053711;28;20060;-60
2021/03/04 09:23:41;;;;;;;37.22;14.32;;;;;;;11.14;73.98;101674.28;5070327;28;20047;-64
2021/03/04 09:26:08;;;;;;;32.28;14.18;;;;;;;11.17;74.16;101671.75;5049918;28;20059;-62
2021/03/04 09:28:39;;;;;;;29.50;12.00;;;;;;;11.35;73.63;101675.66;5033231;28;20049;-63
2021/03/04 09:31:14;;;;;;;27.70;12.07;;;;;;;11.50;73.63;101677.41;5067182;28;20059;-65
2021/03/04 09:33:42;;;;;;;31.20;12.27;;;;;;;11.29;73.55;101674.91;5053621;28;20348;-62
2021/03/04 09:36:10;;;;;;;22.13;10.73;;;;;;;11.00;74.31;101676.09;5055803;28;20056;-64
2021/03/04 09:38:54;;;;;;;26.35;11.30;;;;;;;11.09;74.43;101664.13;5040318;28;20049;-64
2021/03/04 09:41:22;;;;;;;28.40;11.80;;;;;;;11.37;74.01;101656.06;5040967;28;20507;-64
2021/03/04 09:43:56;;;;;;;27.67;10.90;;;;;;;11.70;73.03;101666.13;5051098;28;20048;-63
2021/03/04 09:46:30;;;;;;;21.08;10.40;;;;;;;11.81;71.75;101656.56;5059678;28;20048;-64
2021/03/04 09:49:12;;;;;;;22.90;11.07;;;;;;;12.17;70.34;101663.16;5034327;28;20048;-63
2021/03/04 09:51:40;;;;;;;24.95;10.75;;;;;;;12.15;69.91;101663.47;5036231;28;20052;-65
2021/03/04 09:54:08;;;;;;;25.10;11.13;;;;;;;11.73;71.04;101651.72;5060374;28;20055;-61
2021/03/04 09:57:02;;;;;;;27.70;11.20;;;;;;;11.74;70.61;101662.47;5051103;28;20063;-62
2021/03/04 09:59:29;;;;;;;26.10;10.30;;;;;;;11.27;72.70;101666.13;5061591;28;20382;-63
2021/03/04 10:01:56;;;;;;;22.98;9.85;;;;;;;11.98;71.59;101645.81;5074867;28;20044;-63
2021/03/04 10:04:27;;;;;;;23.70;10.52;;;;;;;11.92;70.54;101655.31;5050329;28;20491;-64
2021/03/04 10:06:53;;;;;;;;;;;;;;;11.38;71.57;101659.34;5086526;28;20040;-65
2021/03/04 10:09:26;;;;;;;21.63;10.20;;;;;;;11.37;73.23;101658.84;5071471;28;19924;-64
2021/03/04 10:12:00;;;;;;;22.33;12.00;;;;;;;11.65;73.67;101661.50;5084506;28;20051;-63
2021/03/04 10:14:27;;;;;;;30.00;11.85;;;;;;;12.36;72.13;101655.69;5076089;28;20244;-61
2021/03/04 10:16:56;;;;;;;29.55;12.30;;;;;;;12.58;72.13;101655.03;5072748;28;20060;-64
2021/03/04 10:19:24;;;;;;;;;;;;;;;13.25;69.52;101654.31;5076507;28;20079;-62
2021/03/04 10:21:51;;;;;;;29.65;12.88;;;;;;;13.51;67.48;101650.66;5071233;28;19921;-63
2021/03/04 10:24:21;;;;;;;28.55;12.05;;;;;;;13.58;67.36;101653.03;5089825;28;20059;-63
2021/03/04 10:26:48;;;;;;;27.08;13.35;;;;;;;12.83;68.26;101647.06;5069218;28;20055;-62
2021/03/04 10:29:15;;;;;;;26.63;13.40;;;;;;;12.93;70.27;101652.41;5090008;28;20051;-64
2021/03/04 10:31:45;;;;;;;30.65;14.35;;;;;;;12.57;70.03;101656.94;5068958;28;20048;-61
2021/03/04 10:34:18;;;;;;;23.35;12.50;;;;;;;13.20;68.72;101657.97;5081460;28;20052;-64
2021/03/04 10:36:50;;;;;;;25.48;13.80;;;;;;;12.78;69.11;101658.22;5085474;28;20517;-62
2021/03/04 10:39:26;;;;;;;24.10;12.55;;;;;;;12.76;69.40;101654.13;5079776;28;20048;-62
2021/03/04 10:41:53;;;;;;;25.05;12.63;;;;;;;12.94;70.20;101661.50;5075423;28;20525;-64
2021/03/04 10:44:20;;;;;;;23.55;12.23;;;;;;;13.13;68.70;101660.31;5067978;28;20407;-62
2021/03/04 10:46:47;;;;;;;34.30;12.65;;;;;;;13.27;67.43;101658.38;5076296;28;20055;-63
2021/03/04 10:49:16;;;;;;;31.90;12.35;;;;;;;12.74;68.67;101654.44;5061646;28;20537;-61
2021/03/04 10:51:43;;;;;;;26.20;10.18;;;;;;;12.09;68.73;101658.34;5085710;28;20412;-64
2021/03/04 10:54:10;;;;;;;21.63;10.45;;;;;;;12.29;69.04;101658.03;5086093;28;20055;-61
2021/03/04 10:56:38;;;;;;;27.58;11.02;;;;;;;12.76;69.15;101651.38;5067605;28;20059;-63
2021/03/04 10:59:07;;;;;;;27.73;12.65;;;;;;;12.69;68.85;101659.25;5069894;28;20051;-61
2021/03/04 11:01:35;;;;;;;29.85;12.32;;;;;;;12.22;69.42;101663.13;5072044;28;20471;-64
2021/03/04 11:04:05;;;;;;;22.42;10.65;;;;;;;12.08;69.53;101654.75;5050834;28;20059;-64
2021/03/04 11:06:32;;;;;;;28.15;9.82;;;;;;;12.26;69.15;101661.38;5072860;28;20048;-64
2021/03/04 11:09:01;;;;;;;27.77;11.18;;;;;;;12.47;71.49;101662.66;5023279;28;20047;-61
2021/03/04 11:11:28;;;;;;;19.83;11.18;;;;;;;12.30;70.77;101657.72;5057325;28;20071;-64
2021/03/04 11:14:12;;;;;;;26.83;11.48;;;;;;;12.79;70.85;101650.75;5051203;28;20539;-63
2021/03/04 11:16:41;;;;;;;24.02;11.93;;;;;;;12.70;68.09;101655.34;5072644;28;20067;-64
2021/03/04 11:19:12;;;;;;;22.15;11.23;;;;;;;13.19;70.93;101648.03;5069405;28;20048;-63
2021/03/04 11:21:45;;;;;;;24.10;11.07;;;;;;;13.62;67.07;101644.88;5059830;28;20236;-63
2021/03/04 11:24:13;;;;;;;22.00;10.65;;;;;;;13.47;66.90;101635.81;5070512;28;20044;-65
2021/03/04 11:26:41;;;;;;;23.17;11.77;;;;;;;13.14;66.54;101647.31;5081966;28;20039;-61